Share

Fukui, Japan

8:32 AM JST on April 24, 2014 (GMT +0900)
Komatsu (RJNK) Elev 30 ft | 36.39 °N, 136.41 °E | Change Station

Current weather conditions updated 32 minutes ago

Fog
Fog
46 °F
Feels Like 46 °F
N
1
Wind Variable Wind from Variable
Sunrise 5:11 AM
Sunset 6:36 PM
Moon Waning Crescent

Today is forecast to be Warmer than yesterday.

Pressure 30.24 in
Visibility 0.5 miles
Clouds Scattered Clouds 400 ft
Mostly Cloudy 1000 ft
Dew Point 46 °F
Humidity 100%
Rainfall 0.00 in
Snow Depth Not available.
UV 2 out of 16
Pollen Not available.
Air Quality Not available.
Flu Activity Not available.
METAR RJNK 232300Z VRB01KT 0800 R24/0600VP1800U FG BKN000 SCT004 BKN010 08/08 Q1024

More Conditions Fewer Conditions

Pressure 30.24 in
Visibility 0.5 miles
Clouds Scattered Clouds 400 ft
Mostly Cloudy 1000 ft
Dew Point 46 °F
Humidity 100%
Rainfall 0.00 in
Snow Depth Not available.
UV 2 out of 16
Pollen Not available.
Air Quality Not available.
Flu Activity Not available.
METAR RJNK 232300Z VRB01KT 0800 R24/0600VP1800U FG BKN000 SCT004 BKN010 08/08 Q1024

More Conditions Fewer Conditions

10-Day Weather Forecast

Almanac

Astronomy

Apr. 24, 2014 Rise Set
Actual Time 5:11 AM JST 6:36 PM JST
Civil Twilight 4:44 AM JST 7:03 PM JST
Nautical Twilight 4:11 AM JST 7:36 PM JST
Astronomical Twilight 3:38 AM JST 8:10 PM JST
Moon 1:47 AM JST (4/24) 1:19 PM JST (4/24)
Length of Visible Light 14h 19m
Length of Day
13h 25m
Tomorrow will be 2m 4s longer.
Waning Crescent, 32% of the Moon is Illuminated
Apr 23
Waning Crescent
Apr 29
New
May 6
First Quarter
May 14
Full
May 21
Last Quarter

Yesterday's Extremes

Country Highs Country Lows

Community

  • Nestled In
    Nestled In
  • Stunning Sunrise
    Stunning Sunrise
  • spring flowers
    spring flowers
  • Earth Day Spectrum Ove' Blue
    Earth Day Spectrum Ove' Blue
  • BARN B&W
    BARN B&W

WunderPhotos

Upload Photos

1,704,457 photos uploaded!

WunderBlogs® & News

Nearby

Snow Depth

Not available.

Coastal Water Temperatures

Place Temperature
No Stations Reporting

Earthquake Activity

City Distance Mag. Time & Date
No recent earthquake activity has been reported nearby.
Minimum magnitude displayed is 2.5.

Nearby Weather Stations

There are no personal weather stations in this area.

What do you think?

We're not finished. Please let us know what you like, what you don't like, and what you are still missing.